createdAt,value
2018-10-07T00:02:26.213Z,14.40
2018-10-07T00:04:54.838Z,14.40
2018-10-07T00:07:23.535Z,14.50
2018-10-07T00:09:53.364Z,14.40
2018-10-07T00:12:22.000Z,14.40
2018-10-07T00:14:50.604Z,14.40
2018-10-07T00:17:19.218Z,14.40
2018-10-07T00:19:47.842Z,14.30
2018-10-07T00:22:16.458Z,14.30
2018-10-07T00:24:45.058Z,14.20
2018-10-07T00:27:13.646Z,14.20
2018-10-07T00:29:42.309Z,14.20
2018-10-07T00:32:13.840Z,14.10
2018-10-07T00:34:43.349Z,14.10
2018-10-07T00:37:11.983Z,14.20
2018-10-07T00:39:40.709Z,14.20
2018-10-07T00:42:10.409Z,14.20
2018-10-07T00:44:39.051Z,14.20
2018-10-07T00:47:07.693Z,14.10
2018-10-07T00:49:36.418Z,14.00
2018-10-07T00:52:05.092Z,14.00
2018-10-07T00:54:33.738Z,13.90
2018-10-07T00:57:02.402Z,13.90
2018-10-07T00:59:31.047Z,13.80
2018-10-07T01:01:59.684Z,13.80
2018-10-07T01:04:28.295Z,13.70
2018-10-07T01:06:56.919Z,13.70
2018-10-07T01:09:25.578Z,13.60
2018-10-07T01:11:54.171Z,13.50
2018-10-07T01:14:22.782Z,13.50
2018-10-07T01:16:51.409Z,13.50
2018-10-07T01:19:20.036Z,13.50
2018-10-07T01:21:48.812Z,13.40
2018-10-07T01:24:17.455Z,13.40
2018-10-07T01:26:46.054Z,13.40
2018-10-07T01:29:14.707Z,13.40
2018-10-07T01:31:43.327Z,13.50
2018-10-07T01:34:11.950Z,13.50
2018-10-07T01:36:40.562Z,13.50
2018-10-07T01:39:11.170Z,13.50
2018-10-07T01:41:39.775Z,13.40
2018-10-07T01:44:08.435Z,13.40
2018-10-07T01:46:37.111Z,13.30
2018-10-07T01:49:05.805Z,13.30
2018-10-07T01:51:37.964Z,13.20
2018-10-07T01:54:06.624Z,13.20
2018-10-07T01:56:35.249Z,13.10
2018-10-07T01:59:03.923Z,13.10
2018-10-07T02:01:32.529Z,13.10
2018-10-07T02:04:01.187Z,13.10
2018-10-07T02:06:29.842Z,13.10
2018-10-07T02:08:58.469Z,13.10
2018-10-07T02:11:27.084Z,13.00
2018-10-07T02:13:55.767Z,13.00
2018-10-07T02:16:24.475Z,13.00
2018-10-07T02:18:53.088Z,13.00
2018-10-07T02:21:21.740Z,13.00
2018-10-07T02:23:50.354Z,13.00
2018-10-07T02:26:18.986Z,12.90
2018-10-07T02:28:47.614Z,12.90
2018-10-07T02:31:16.230Z,12.90
2018-10-07T02:33:44.833Z,12.80
2018-10-07T02:36:13.481Z,12.70
2018-10-07T02:38:42.073Z,12.70
2018-10-07T02:41:10.696Z,12.60
2018-10-07T02:43:39.321Z,12.60
2018-10-07T02:46:08.191Z,12.50
2018-10-07T02:48:36.911Z,12.50
2018-10-07T02:51:05.838Z,12.40
2018-10-07T02:53:34.652Z,12.40
2018-10-07T02:56:03.284Z,12.40
2018-10-07T02:58:32.027Z,12.30
2018-10-07T03:01:00.655Z,12.30
2018-10-07T03:03:29.311Z,12.40
2018-10-07T03:05:57.968Z,12.40
2018-10-07T03:08:26.584Z,12.30
2018-10-07T03:10:55.209Z,12.40
2018-10-07T03:13:23.857Z,12.40
2018-10-07T03:15:52.450Z,12.40
2018-10-07T03:18:21.080Z,12.40
2018-10-07T03:20:49.740Z,12.40
2018-10-07T03:23:18.296Z,12.40
2018-10-07T03:25:46.918Z,12.40
2018-10-07T03:28:15.536Z,12.40
2018-10-07T03:30:44.160Z,12.40
2018-10-07T03:33:12.785Z,12.30
2018-10-07T03:35:41.412Z,12.40
2018-10-07T03:38:10.021Z,12.30
2018-10-07T03:40:38.614Z,12.40
2018-10-07T03:43:07.239Z,12.30
2018-10-07T03:45:35.838Z,12.40
2018-10-07T03:48:04.455Z,12.40
2018-10-07T03:50:33.058Z,12.50
2018-10-07T03:53:01.716Z,12.50
2018-10-07T03:55:30.335Z,12.60
2018-10-07T03:57:58.953Z,12.60
2018-10-07T04:00:27.597Z,12.50
2018-10-07T04:02:56.280Z,12.30
2018-10-07T04:05:24.884Z,12.30
2018-10-07T04:07:53.541Z,12.20
2018-10-07T04:10:22.150Z,12.20
2018-10-07T04:12:50.778Z,12.20
2018-10-07T04:15:19.402Z,12.20
2018-10-07T04:17:48.028Z,12.20
2018-10-07T04:20:16.665Z,12.20
2018-10-07T04:22:45.378Z,12.20
2018-10-07T04:25:13.985Z,12.20
2018-10-07T04:27:42.603Z,12.20
2018-10-07T04:30:11.209Z,12.20
2018-10-07T04:32:39.834Z,12.10
2018-10-07T04:35:08.458Z,12.10
2018-10-07T04:37:37.080Z,12.20
2018-10-07T04:40:05.770Z,12.20
2018-10-07T04:42:34.403Z,12.20
2018-10-07T04:45:03.018Z,12.20
2018-10-07T04:47:31.636Z,12.20
2018-10-07T04:50:00.234Z,12.20
2018-10-07T04:52:28.875Z,12.20
2018-10-07T04:54:57.461Z,12.10
2018-10-07T04:57:26.295Z,12.20
2018-10-07T04:59:54.907Z,12.20
2018-10-07T05:02:23.526Z,12.30
2018-10-07T05:04:52.193Z,12.40
2018-10-07T05:07:21.045Z,12.40
2018-10-07T05:09:49.724Z,12.40
2018-10-07T05:12:19.010Z,12.40
2018-10-07T05:14:47.724Z,12.50
2018-10-07T05:17:17.703Z,12.50
2018-10-07T05:19:46.346Z,12.60
2018-10-07T05:22:14.990Z,12.70
2018-10-07T05:24:43.625Z,12.60
2018-10-07T05:27:12.269Z,12.60
2018-10-07T05:29:40.896Z,12.60
2018-10-07T05:32:09.520Z,12.50
2018-10-07T05:34:38.134Z,12.40
2018-10-07T05:37:06.781Z,12.40
2018-10-07T05:39:35.374Z,12.30
2018-10-07T05:42:03.977Z,12.30
2018-10-07T05:44:32.630Z,12.20
2018-10-07T05:47:01.221Z,12.20
2018-10-07T05:49:29.893Z,12.20
2018-10-07T05:51:58.553Z,12.30
2018-10-07T05:54:27.177Z,12.40
2018-10-07T05:56:55.802Z,12.40
2018-10-07T05:59:24.521Z,12.50
2018-10-07T06:01:54.895Z,12.60
2018-10-07T06:04:34.737Z,12.70
2018-10-07T06:07:04.458Z,12.80
2018-10-07T06:09:34.611Z,12.90
2018-10-07T06:12:03.304Z,12.90
2018-10-07T06:14:43.149Z,12.90
2018-10-07T06:17:11.849Z,13.00
2018-10-07T06:19:40.542Z,13.00
2018-10-07T06:22:09.225Z,13.00
2018-10-07T06:24:37.878Z,13.00
2018-10-07T06:27:06.941Z,13.10
2018-10-07T06:29:35.644Z,13.10
2018-10-07T06:32:04.410Z,13.10
2018-10-07T06:34:33.060Z,13.10
2018-10-07T06:37:02.727Z,13.20
2018-10-07T06:39:31.440Z,13.20
2018-10-07T06:42:00.153Z,13.20
2018-10-07T06:44:28.797Z,13.30
2018-10-07T06:46:57.457Z,13.30
2018-10-07T06:49:26.090Z,13.40
2018-10-07T06:51:54.759Z,13.50
2018-10-07T06:54:23.433Z,13.60
2018-10-07T06:56:52.098Z,13.70
2018-10-07T06:59:20.798Z,13.80
2018-10-07T07:01:49.478Z,14.00
2018-10-07T07:04:18.285Z,14.10
2018-10-07T07:06:46.870Z,14.20
2018-10-07T07:09:15.468Z,14.20
2018-10-07T07:11:44.076Z,14.30
2018-10-07T07:14:12.706Z,14.30
2018-10-07T07:16:41.312Z,14.40
2018-10-07T07:19:09.952Z,14.50
2018-10-07T07:21:38.667Z,14.50
2018-10-07T07:24:07.292Z,14.60
2018-10-07T07:26:35.882Z,14.70
2018-10-07T07:29:04.510Z,14.70
2018-10-07T07:31:33.176Z,14.80
2018-10-07T07:34:01.767Z,14.80
2018-10-07T07:36:30.391Z,14.80
2018-10-07T07:38:59.040Z,14.70
2018-10-07T07:41:27.645Z,14.70
2018-10-07T07:44:01.438Z,14.70
2018-10-07T07:46:30.399Z,14.60
2018-10-07T07:48:59.042Z,14.70
2018-10-07T07:51:27.680Z,15.00
2018-10-07T07:53:56.288Z,15.30
2018-10-07T07:56:24.926Z,15.70
2018-10-07T07:58:53.574Z,15.80
2018-10-07T08:01:22.724Z,15.80
2018-10-07T08:03:51.330Z,15.90
2018-10-07T08:06:19.967Z,16.10
2018-10-07T08:08:48.623Z,16.70
2018-10-07T08:11:17.261Z,16.70
2018-10-07T08:13:45.924Z,16.80
2018-10-07T08:16:14.564Z,16.90
2018-10-07T08:18:43.169Z,16.80
2018-10-07T08:21:11.873Z,16.80
2018-10-07T08:23:40.588Z,16.80
2018-10-07T08:26:09.320Z,16.90
2018-10-07T08:28:38.076Z,17.10
2018-10-07T08:31:06.715Z,17.40
2018-10-07T08:33:35.371Z,17.60
2018-10-07T08:36:04.064Z,17.80
2018-10-07T08:38:32.673Z,17.80
2018-10-07T08:41:01.288Z,18.00
2018-10-07T08:43:29.916Z,18.30
2018-10-07T08:45:58.560Z,18.50
2018-10-07T08:48:27.177Z,18.70
2018-10-07T08:50:55.854Z,18.80
2018-10-07T08:53:24.568Z,18.90
2018-10-07T08:55:53.286Z,19.10
2018-10-07T08:58:21.888Z,19.30
2018-10-07T09:00:50.497Z,19.50
2018-10-07T09:03:19.136Z,19.30
2018-10-07T09:05:47.793Z,19.40
2018-10-07T09:08:16.413Z,19.40
2018-10-07T09:10:45.056Z,19.50
2018-10-07T09:13:17.460Z,19.50
2018-10-07T09:15:46.295Z,19.50
2018-10-07T09:18:14.879Z,19.60
2018-10-07T09:20:43.482Z,19.60
2018-10-07T09:23:12.154Z,19.70
2018-10-07T09:25:40.820Z,19.70
2018-10-07T09:28:09.505Z,19.70
2018-10-07T09:30:38.618Z,19.70
2018-10-07T09:33:07.275Z,19.70
2018-10-07T09:35:35.914Z,19.70
2018-10-07T09:38:04.581Z,19.60
2018-10-07T09:40:33.203Z,19.60
2018-10-07T09:43:02.062Z,19.60
2018-10-07T09:45:30.723Z,19.60
2018-10-07T09:47:59.443Z,19.70
2018-10-07T09:50:28.079Z,19.70
2018-10-07T09:52:56.688Z,19.70
2018-10-07T09:55:28.255Z,19.70
2018-10-07T09:57:57.339Z,19.60
2018-10-07T10:00:31.205Z,19.70
2018-10-07T10:03:00.778Z,19.60
2018-10-07T10:05:29.452Z,19.70
2018-10-07T10:07:58.073Z,19.70
2018-10-07T10:10:27.284Z,19.60
2018-10-07T10:12:55.912Z,19.70
2018-10-07T10:15:24.528Z,19.80
2018-10-07T10:18:02.767Z,20.00
2018-10-07T10:20:45.888Z,20.00
2018-10-07T10:23:24.116Z,19.90
2018-10-07T10:26:04.325Z,19.90
2018-10-07T10:28:56.223Z,19.90
2018-10-07T10:31:32.538Z,19.80
2018-10-07T10:34:12.447Z,19.90
2018-10-07T10:36:51.506Z,19.80
2018-10-07T10:39:28.567Z,19.80
2018-10-07T10:42:05.259Z,19.70
2018-10-07T10:44:54.078Z,19.70
2018-10-07T10:47:32.826Z,19.60
2018-10-07T10:50:28.369Z,19.50
2018-10-07T10:53:49.036Z,19.30
2018-10-07T10:56:26.560Z,19.20
2018-10-07T11:01:12.136Z,19.00
2018-10-07T11:03:49.570Z,18.80
2018-10-07T11:06:26.469Z,18.60
2018-10-07T11:09:03.101Z,18.60
2018-10-07T11:12:10.234Z,18.80
2018-10-07T11:15:01.514Z,19.10
2018-10-07T11:17:40.527Z,19.00
2018-10-07T11:20:18.503Z,19.00
2018-10-07T11:23:27.246Z,19.00
2018-10-07T11:26:03.624Z,19.00
2018-10-07T11:29:00.370Z,18.90
2018-10-07T11:31:44.864Z,18.80
2018-10-07T11:36:24.178Z,18.70
2018-10-07T11:39:02.380Z,18.80
2018-10-07T11:41:35.163Z,18.20
2018-10-07T11:46:14.598Z,18.10
2018-10-07T11:48:49.969Z,18.00
2018-10-07T11:53:29.102Z,17.90
2018-10-07T11:55:58.729Z,18.00
2018-10-07T11:58:29.779Z,17.90
2018-10-07T12:01:02.050Z,17.90
2018-10-07T12:03:30.733Z,17.80
2018-10-07T12:05:59.322Z,17.80
2018-10-07T12:08:28.079Z,17.70
2018-10-07T12:10:56.665Z,17.60
2018-10-07T12:13:33.105Z,17.50
2018-10-07T12:16:01.748Z,17.30
2018-10-07T12:18:31.403Z,17.20
2018-10-07T12:21:00.012Z,17.00
2018-10-07T12:23:30.696Z,16.80
2018-10-07T12:25:59.444Z,16.70
2018-10-07T12:28:28.031Z,16.60
2018-10-07T12:30:56.612Z,16.40
2018-10-07T12:33:25.181Z,16.30
2018-10-07T12:35:53.802Z,16.30
2018-10-07T12:38:22.493Z,16.30
2018-10-07T12:40:51.468Z,16.30
2018-10-07T12:43:20.079Z,16.20
2018-10-07T12:45:48.650Z,16.10
2018-10-07T12:48:17.211Z,16.00
2018-10-07T12:50:45.772Z,15.90
2018-10-07T12:53:14.366Z,15.90
2018-10-07T12:55:43.279Z,15.70
2018-10-07T12:58:11.896Z,15.70
2018-10-07T13:00:40.460Z,15.60
2018-10-07T13:03:09.066Z,15.60
2018-10-07T13:05:37.730Z,15.60
2018-10-07T13:08:06.362Z,15.60
2018-10-07T13:10:34.988Z,15.60
2018-10-07T13:13:03.564Z,15.60
2018-10-07T13:15:32.117Z,15.60
2018-10-07T13:18:00.677Z,15.60
2018-10-07T13:20:29.291Z,15.60
2018-10-07T13:22:57.859Z,15.60
2018-10-07T13:25:26.388Z,15.50
2018-10-07T13:27:54.941Z,15.50
2018-10-07T13:30:23.525Z,15.40
2018-10-07T13:32:52.072Z,15.30
2018-10-07T13:35:20.747Z,15.40
2018-10-07T13:37:49.362Z,15.20
2018-10-07T13:40:17.983Z,15.00
2018-10-07T13:42:46.573Z,14.90
2018-10-07T13:45:15.169Z,14.80
2018-10-07T13:47:43.833Z,14.80
2018-10-07T13:50:12.392Z,14.70
2018-10-07T13:52:40.925Z,14.60
2018-10-07T13:55:09.493Z,14.50
2018-10-07T13:57:38.053Z,14.40
2018-10-07T14:00:06.641Z,14.30
2018-10-07T14:02:35.216Z,14.30
2018-10-07T14:05:03.799Z,14.20
2018-10-07T14:07:32.345Z,14.20
2018-10-07T14:10:00.901Z,14.10
2018-10-07T14:12:29.484Z,14.10
2018-10-07T14:14:58.097Z,14.10
2018-10-07T14:17:26.652Z,14.10
2018-10-07T14:19:55.203Z,14.10
2018-10-07T14:22:23.761Z,14.00
2018-10-07T14:24:52.318Z,13.90
2018-10-07T14:27:20.867Z,13.90
2018-10-07T14:29:49.391Z,13.80
2018-10-07T14:32:17.959Z,13.80
2018-10-07T14:34:46.546Z,13.70
2018-10-07T14:37:15.108Z,13.70
2018-10-07T14:39:43.741Z,13.70
2018-10-07T14:42:12.433Z,13.70
2018-10-07T14:44:40.990Z,13.70
2018-10-07T14:47:09.541Z,13.70
2018-10-07T14:49:38.179Z,13.60
2018-10-07T14:52:06.770Z,13.60
2018-10-07T14:54:35.434Z,13.60
2018-10-07T14:57:04.051Z,13.50
2018-10-07T14:59:32.708Z,13.40
2018-10-07T15:02:01.292Z,13.40
2018-10-07T15:04:29.855Z,13.30
2018-10-07T15:06:58.433Z,13.30
2018-10-07T15:09:27.062Z,13.30
2018-10-07T15:11:55.611Z,13.30
2018-10-07T15:14:24.259Z,13.20
2018-10-07T15:16:52.872Z,13.20
2018-10-07T15:19:21.427Z,13.20
2018-10-07T15:21:50.064Z,13.20
2018-10-07T15:24:18.617Z,13.20
2018-10-07T15:26:47.324Z,13.20
2018-10-07T15:29:15.891Z,13.20
2018-10-07T15:31:44.557Z,13.20
2018-10-07T15:34:13.209Z,13.10
2018-10-07T15:36:41.774Z,13.10
2018-10-07T15:39:10.321Z,13.10
2018-10-07T15:41:38.913Z,13.10
2018-10-07T15:44:07.504Z,13.00
2018-10-07T15:46:36.065Z,13.00
2018-10-07T15:49:04.690Z,13.00
2018-10-07T15:51:33.280Z,13.00
2018-10-07T15:54:01.831Z,13.00
2018-10-07T15:56:30.361Z,13.00
2018-10-07T15:58:58.903Z,13.00
2018-10-07T16:01:27.508Z,13.00
2018-10-07T16:03:56.059Z,13.00
2018-10-07T16:06:24.627Z,12.90
2018-10-07T16:08:53.309Z,12.90
2018-10-07T16:11:21.825Z,12.90
2018-10-07T16:13:50.390Z,12.90
2018-10-07T16:16:18.945Z,12.80
2018-10-07T16:18:47.517Z,12.80
2018-10-07T16:21:16.081Z,12.80
2018-10-07T16:23:44.702Z,12.70
2018-10-07T16:26:13.312Z,12.70
2018-10-07T16:28:41.854Z,12.60
2018-10-07T16:31:10.458Z,12.60
2018-10-07T16:33:39.113Z,12.50
2018-10-07T16:36:07.702Z,12.40
2018-10-07T16:38:36.265Z,12.40
2018-10-07T16:41:04.836Z,12.40
2018-10-07T16:43:33.509Z,12.30
2018-10-07T16:46:02.116Z,12.30
2018-10-07T16:48:30.756Z,12.20
2018-10-07T16:50:59.377Z,12.20
2018-10-07T16:53:27.918Z,12.10
2018-10-07T16:55:56.496Z,12.10
2018-10-07T16:58:25.057Z,12.10
2018-10-07T17:00:53.706Z,12.00
2018-10-07T17:03:22.272Z,12.00
2018-10-07T17:05:50.824Z,12.00
2018-10-07T17:08:22.791Z,12.00
2018-10-07T17:10:51.375Z,11.90
2018-10-07T17:13:20.102Z,11.90
2018-10-07T17:15:48.585Z,11.80
2018-10-07T17:18:17.140Z,11.80
2018-10-07T17:20:45.809Z,11.80
2018-10-07T17:23:14.427Z,11.80
2018-10-07T17:25:42.998Z,11.70
2018-10-07T17:28:11.521Z,11.70
2018-10-07T17:30:40.157Z,11.60
2018-10-07T17:33:08.775Z,11.60
2018-10-07T17:35:37.447Z,11.60
2018-10-07T17:38:06.208Z,11.60
2018-10-07T17:40:34.821Z,11.50
2018-10-07T17:43:03.447Z,11.50
2018-10-07T17:45:32.003Z,11.50
2018-10-07T17:48:02.300Z,11.50
2018-10-07T17:50:30.905Z,11.50
2018-10-07T17:52:59.445Z,11.40
2018-10-07T17:55:28.471Z,11.40
2018-10-07T17:57:57.054Z,11.30
2018-10-07T18:00:26.989Z,11.30
2018-10-07T18:02:55.646Z,11.20
2018-10-07T18:05:24.181Z,11.20
2018-10-07T18:07:53.092Z,11.20
2018-10-07T18:10:21.676Z,11.10
2018-10-07T18:12:50.341Z,11.10
2018-10-07T18:15:18.931Z,11.10
2018-10-07T18:17:47.498Z,11.10
2018-10-07T18:20:16.096Z,11.10
2018-10-07T18:22:44.768Z,11.00
2018-10-07T18:25:13.327Z,11.00
2018-10-07T18:27:41.927Z,11.00
2018-10-07T18:30:10.504Z,11.00
2018-10-07T18:32:39.144Z,11.00
2018-10-07T18:35:07.734Z,11.00
2018-10-07T18:37:36.341Z,11.00
2018-10-07T18:40:05.045Z,10.90
2018-10-07T18:42:33.590Z,10.90
2018-10-07T18:45:02.177Z,10.90
2018-10-07T18:47:30.843Z,10.90
2018-10-07T18:49:59.483Z,10.90
2018-10-07T18:52:28.076Z,10.90
2018-10-07T18:54:56.665Z,10.90
2018-10-07T18:57:25.228Z,10.90
2018-10-07T18:59:53.784Z,10.90
2018-10-07T19:02:22.373Z,10.90
2018-10-07T19:04:50.957Z,10.90
2018-10-07T19:07:19.552Z,10.90
2018-10-07T19:09:48.135Z,10.90
2018-10-07T19:12:16.715Z,10.90
2018-10-07T19:14:45.300Z,10.90
2018-10-07T19:17:13.901Z,10.80
2018-10-07T19:19:42.463Z,10.80
2018-10-07T19:22:11.025Z,10.80
2018-10-07T19:24:39.652Z,10.80
2018-10-07T19:27:08.435Z,10.80
2018-10-07T19:29:37.062Z,10.80
2018-10-07T19:32:05.625Z,10.80
2018-10-07T19:34:34.186Z,10.80
2018-10-07T19:37:02.883Z,10.70
2018-10-07T19:39:31.420Z,10.70
2018-10-07T19:41:59.982Z,10.70
2018-10-07T19:44:28.564Z,10.70
2018-10-07T19:46:57.103Z,10.80
2018-10-07T19:49:25.706Z,10.70
2018-10-07T19:51:54.272Z,10.70
2018-10-07T19:54:22.822Z,10.70
2018-10-07T19:56:51.490Z,10.70
2018-10-07T19:59:20.026Z,10.60
2018-10-07T20:01:48.705Z,10.70
2018-10-07T20:04:17.262Z,10.70
2018-10-07T20:06:45.831Z,10.60
2018-10-07T20:09:14.463Z,10.60
2018-10-07T20:11:43.064Z,10.70
2018-10-07T20:14:11.599Z,10.60
2018-10-07T20:16:40.224Z,10.70
2018-10-07T20:19:08.870Z,10.60
2018-10-07T20:21:37.443Z,10.70
2018-10-07T20:24:06.030Z,10.60
2018-10-07T20:26:34.623Z,10.60
2018-10-07T20:29:03.203Z,10.60
2018-10-07T20:31:31.732Z,10.60
2018-10-07T20:34:00.364Z,10.60
2018-10-07T20:36:28.899Z,10.60
2018-10-07T20:38:57.664Z,10.60
2018-10-07T20:41:26.238Z,10.60
2018-10-07T20:43:54.776Z,10.50
2018-10-07T20:46:23.305Z,10.50
2018-10-07T20:48:51.895Z,10.50
2018-10-07T20:51:20.557Z,10.40
2018-10-07T20:53:49.083Z,10.40
2018-10-07T20:56:17.660Z,10.30
2018-10-07T20:58:46.221Z,10.30
2018-10-07T21:01:14.762Z,10.30
2018-10-07T21:03:43.337Z,10.20
2018-10-07T21:06:11.938Z,10.20
2018-10-07T21:08:40.549Z,10.10
2018-10-07T21:11:09.150Z,10.00
2018-10-07T21:13:38.201Z,9.90
2018-10-07T21:16:06.848Z,9.80
2018-10-07T21:18:35.388Z,9.70
2018-10-07T21:21:03.969Z,9.60
2018-10-07T21:23:32.528Z,9.50
2018-10-07T21:26:01.090Z,9.40
2018-10-07T21:28:29.627Z,9.30
2018-10-07T21:30:58.345Z,9.30
2018-10-07T21:33:26.894Z,9.20
2018-10-07T21:35:55.431Z,9.20
2018-10-07T21:38:23.992Z,9.10
2018-10-07T21:40:52.814Z,9.10
2018-10-07T21:43:21.362Z,9.00
2018-10-07T21:45:49.889Z,8.90
2018-10-07T21:48:18.867Z,8.90
2018-10-07T21:50:47.444Z,8.80
2018-10-07T21:53:15.997Z,8.70
2018-10-07T21:55:44.549Z,8.70
2018-10-07T21:58:13.073Z,8.60
2018-10-07T22:00:41.684Z,8.50
2018-10-07T22:03:10.215Z,8.40
2018-10-07T22:08:07.088Z,8.30
2018-10-07T22:10:35.621Z,8.30
2018-10-07T22:13:04.176Z,8.20
2018-10-07T22:15:32.709Z,8.20
2018-10-07T22:18:01.249Z,8.20
2018-10-07T22:20:29.784Z,8.20
2018-10-07T22:22:58.328Z,8.10
2018-10-07T22:25:26.909Z,8.00
2018-10-07T22:27:55.436Z,8.00
2018-10-07T22:30:24.064Z,7.90
2018-10-07T22:32:52.615Z,7.90
2018-10-07T22:35:21.165Z,7.90
2018-10-07T22:37:49.729Z,7.80
2018-10-07T22:40:18.283Z,7.70
2018-10-07T22:42:46.824Z,7.70
2018-10-07T22:45:15.390Z,7.70
2018-10-07T22:47:43.953Z,7.70
2018-10-07T22:50:12.500Z,7.60
2018-10-07T22:52:41.058Z,7.60
2018-10-07T22:55:09.606Z,7.50
2018-10-07T22:57:38.192Z,7.50
2018-10-07T23:00:07.623Z,7.40
2018-10-07T23:02:36.183Z,7.30
2018-10-07T23:05:05.201Z,7.30
2018-10-07T23:07:33.745Z,7.20
2018-10-07T23:10:02.303Z,7.20
2018-10-07T23:12:30.845Z,7.10
2018-10-07T23:14:59.386Z,7.00
2018-10-07T23:17:27.938Z,7.10
2018-10-07T23:19:56.535Z,7.00
2018-10-07T23:22:25.083Z,7.00
2018-10-07T23:24:53.643Z,6.90
2018-10-07T23:27:22.194Z,6.90
2018-10-07T23:29:50.751Z,6.80
2018-10-07T23:32:19.284Z,6.80
2018-10-07T23:34:47.801Z,6.70
2018-10-07T23:37:16.420Z,6.70
2018-10-07T23:39:44.949Z,6.60
2018-10-07T23:42:13.498Z,6.60
2018-10-07T23:44:42.046Z,6.60
2018-10-07T23:47:10.631Z,6.50
2018-10-07T23:49:39.175Z,6.50
2018-10-07T23:52:08.263Z,6.40
2018-10-07T23:54:36.897Z,6.40
2018-10-07T23:57:05.534Z,6.40
2018-10-07T23:59:34.089Z,6.30
